sensor_id;sensor_type;location;lat;lon;timestamp;temperature;humidity
44215;DHT22;29884;47.450;19.124;2023-07-09T00:01:53;19.80;99.90
44215;DHT22;29884;47.450;19.124;2023-07-09T00:04:19;19.80;99.90
44215;DHT22;29884;47.450;19.124;2023-07-09T00:06:45;19.80;99.90
44215;DHT22;29884;47.450;19.124;2023-07-09T00:09:19;19.80;99.90
44215;DHT22;29884;47.450;19.124;2023-07-09T00:11:46;19.80;99.90
44215;DHT22;29884;47.450;19.124;2023-07-09T00:14:14;19.80;99.90
44215;DHT22;29884;47.450;19.124;2023-07-09T00:16:40;19.80;99.90
44215;DHT22;29884;47.450;19.124;2023-07-09T00:19:15;19.70;99.90
44215;DHT22;29884;47.450;19.124;2023-07-09T00:21:43;19.80;99.90
44215;DHT22;29884;47.450;19.124;2023-07-09T00:24:11;19.70;99.90
44215;DHT22;29884;47.450;19.124;2023-07-09T00:26:38;19.70;99.90
44215;DHT22;29884;47.450;19.124;2023-07-09T00:29:10;19.70;99.90
44215;DHT22;29884;47.450;19.124;2023-07-09T00:31:37;19.70;99.90
44215;DHT22;29884;47.450;19.124;2023-07-09T00:34:10;19.60;99.90
44215;DHT22;29884;47.450;19.124;2023-07-09T00:36:40;19.50;99.90
44215;DHT22;29884;47.450;19.124;2023-07-09T00:39:22;19.50;99.90
44215;DHT22;29884;47.450;19.124;2023-07-09T00:41:50;19.50;99.90
44215;DHT22;29884;47.450;19.124;2023-07-09T00:44:27;19.50;99.90
44215;DHT22;29884;47.450;19.124;2023-07-09T00:49:37;19.50;99.90
44215;DHT22;29884;47.450;19.124;2023-07-09T00:52:26;19.50;99.90
44215;DHT22;29884;47.450;19.124;2023-07-09T00:54:56;19.40;99.90
44215;DHT22;29884;47.450;19.124;2023-07-09T00:57:25;19.40;99.90
44215;DHT22;29884;47.450;19.124;2023-07-09T01:00:03;19.30;99.90
44215;DHT22;29884;47.450;19.124;2023-07-09T01:02:37;19.30;99.90
44215;DHT22;29884;47.450;19.124;2023-07-09T01:05:04;19.30;99.90
44215;DHT22;29884;47.450;19.124;2023-07-09T01:07:31;19.30;99.90
44215;DHT22;29884;47.450;19.124;2023-07-09T01:09:57;19.30;99.90
44215;DHT22;29884;47.450;19.124;2023-07-09T01:12:23;19.20;99.90
44215;DHT22;29884;47.450;19.124;2023-07-09T01:14:53;19.20;99.90
44215;DHT22;29884;47.450;19.124;2023-07-09T01:17:20;19.00;99.90
44215;DHT22;29884;47.450;19.124;2023-07-09T01:19:49;19.00;99.90
44215;DHT22;29884;47.450;19.124;2023-07-09T01:22:17;19.00;99.90
44215;DHT22;29884;47.450;19.124;2023-07-09T01:27:28;18.90;99.90
44215;DHT22;29884;47.450;19.124;2023-07-09T01:29:56;18.80;99.90
44215;DHT22;29884;47.450;19.124;2023-07-09T01:32:23;18.80;99.90
44215;DHT22;29884;47.450;19.124;2023-07-09T01:34:53;18.60;99.90
44215;DHT22;29884;47.450;19.124;2023-07-09T01:37:22;18.60;99.90
44215;DHT22;29884;47.450;19.124;2023-07-09T01:39:50;18.70;99.90
44215;DHT22;29884;47.450;19.124;2023-07-09T01:42:19;18.70;99.90
44215;DHT22;29884;47.450;19.124;2023-07-09T01:44:48;18.70;99.90
44215;DHT22;29884;47.450;19.124;2023-07-09T01:47:15;18.80;99.90
44215;DHT22;29884;47.450;19.124;2023-07-09T01:49:42;18.80;99.90
44215;DHT22;29884;47.450;19.124;2023-07-09T01:52:13;18.70;99.90
44215;DHT22;29884;47.450;19.124;2023-07-09T01:54:40;18.80;99.90
44215;DHT22;29884;47.450;19.124;2023-07-09T01:57:23;18.80;99.90
44215;DHT22;29884;47.450;19.124;2023-07-09T01:59:53;18.80;99.90
44215;DHT22;29884;47.450;19.124;2023-07-09T02:02:21;18.80;99.90
44215;DHT22;29884;47.450;19.124;2023-07-09T02:04:52;18.80;99.90
44215;DHT22;29884;47.450;19.124;2023-07-09T02:07:19;18.80;99.90
44215;DHT22;29884;47.450;19.124;2023-07-09T02:09:45;18.80;99.90
44215;DHT22;29884;47.450;19.124;2023-07-09T02:12:11;18.80;99.90
44215;DHT22;29884;47.450;19.124;2023-07-09T02:14:38;18.80;99.90
44215;DHT22;29884;47.450;19.124;2023-07-09T02:17:04;18.80;99.90
44215;DHT22;29884;47.450;19.124;2023-07-09T02:19:30;18.80;99.90
44215;DHT22;29884;47.450;19.124;2023-07-09T02:21:57;18.80;99.90
44215;DHT22;29884;47.450;19.124;2023-07-09T02:24:23;18.80;99.90
44215;DHT22;29884;47.450;19.124;2023-07-09T02:27:02;18.70;99.90
44215;DHT22;29884;47.450;19.124;2023-07-09T02:29:29;18.70;99.90
44215;DHT22;29884;47.450;19.124;2023-07-09T02:31:57;18.60;99.90
44215;DHT22;29884;47.450;19.124;2023-07-09T02:34:24;18.60;99.90
44215;DHT22;29884;47.450;19.124;2023-07-09T02:36:55;18.60;99.90
44215;DHT22;29884;47.450;19.124;2023-07-09T02:39:22;18.50;99.90
44215;DHT22;29884;47.450;19.124;2023-07-09T02:41:49;18.50;99.90
44215;DHT22;29884;47.450;19.124;2023-07-09T02:44:15;18.40;99.90
44215;DHT22;29884;47.450;19.124;2023-07-09T02:46:41;18.40;99.90
44215;DHT22;29884;47.450;19.124;2023-07-09T02:49:10;18.30;99.90
44215;DHT22;29884;47.450;19.124;2023-07-09T02:51:36;18.30;99.90
44215;DHT22;29884;47.450;19.124;2023-07-09T02:54:03;18.30;99.90
44215;DHT22;29884;47.450;19.124;2023-07-09T02:56:30;18.20;99.90
44215;DHT22;29884;47.450;19.124;2023-07-09T02:58:56;18.20;99.90
44215;DHT22;29884;47.450;19.124;2023-07-09T03:01:22;18.20;99.90
44215;DHT22;29884;47.450;19.124;2023-07-09T03:03:51;18.20;99.90
44215;DHT22;29884;47.450;19.124;2023-07-09T03:06:19;18.20;99.90
44215;DHT22;29884;47.450;19.124;2023-07-09T03:08:44;18.10;99.90
44215;DHT22;29884;47.450;19.124;2023-07-09T03:11:11;18.10;99.90
44215;DHT22;29884;47.450;19.124;2023-07-09T03:13:37;18.10;99.90
44215;DHT22;29884;47.450;19.124;2023-07-09T03:16:04;18.10;99.90
44215;DHT22;29884;47.450;19.124;2023-07-09T03:18:30;18.10;99.90
44215;DHT22;29884;47.450;19.124;2023-07-09T03:20:56;18.00;99.90
44215;DHT22;29884;47.450;19.124;2023-07-09T03:23:22;18.10;99.90
44215;DHT22;29884;47.450;19.124;2023-07-09T03:25:47;18.10;99.90
44215;DHT22;29884;47.450;19.124;2023-07-09T03:28:13;18.10;99.90
44215;DHT22;29884;47.450;19.124;2023-07-09T03:30:43;18.00;99.90
44215;DHT22;29884;47.450;19.124;2023-07-09T03:33:10;18.00;99.90
44215;DHT22;29884;47.450;19.124;2023-07-09T03:35:36;18.00;99.90
44215;DHT22;29884;47.450;19.124;2023-07-09T03:38:04;18.10;99.90
44215;DHT22;29884;47.450;19.124;2023-07-09T03:40:30;18.10;99.90
44215;DHT22;29884;47.450;19.124;2023-07-09T03:42:56;18.10;99.90
44215;DHT22;29884;47.450;19.124;2023-07-09T03:45:22;18.10;99.90
44215;DHT22;29884;47.450;19.124;2023-07-09T03:47:48;18.10;99.90
44215;DHT22;29884;47.450;19.124;2023-07-09T03:50:14;18.10;99.90
44215;DHT22;29884;47.450;19.124;2023-07-09T03:52:39;18.10;99.90
44215;DHT22;29884;47.450;19.124;2023-07-09T03:55:06;18.10;99.90
44215;DHT22;29884;47.450;19.124;2023-07-09T03:57:32;18.20;99.90
44215;DHT22;29884;47.450;19.124;2023-07-09T03:59:58;18.20;99.90
44215;DHT22;29884;47.450;19.124;2023-07-09T04:02:24;18.20;99.90
44215;DHT22;29884;47.450;19.124;2023-07-09T04:04:49;18.30;99.90
44215;DHT22;29884;47.450;19.124;2023-07-09T04:07:16;18.30;99.90
44215;DHT22;29884;47.450;19.124;2023-07-09T04:09:42;18.20;99.90
44215;DHT22;29884;47.450;19.124;2023-07-09T04:12:09;18.20;99.90
44215;DHT22;29884;47.450;19.124;2023-07-09T04:14:35;18.10;99.90
44215;DHT22;29884;47.450;19.124;2023-07-09T04:17:00;18.10;99.90
44215;DHT22;29884;47.450;19.124;2023-07-09T04:19:26;18.20;99.90
44215;DHT22;29884;47.450;19.124;2023-07-09T04:21:52;18.20;99.90
44215;DHT22;29884;47.450;19.124;2023-07-09T04:24:19;18.30;99.90
44215;DHT22;29884;47.450;19.124;2023-07-09T04:26:45;18.40;99.90
44215;DHT22;29884;47.450;19.124;2023-07-09T04:29:11;18.50;99.90
44215;DHT22;29884;47.450;19.124;2023-07-09T04:31:38;18.50;99.90
44215;DHT22;29884;47.450;19.124;2023-07-09T04:34:04;18.60;99.90
44215;DHT22;29884;47.450;19.124;2023-07-09T04:36:30;18.60;99.90
44215;DHT22;29884;47.450;19.124;2023-07-09T04:38:56;18.70;99.90
44215;DHT22;29884;47.450;19.124;2023-07-09T04:41:22;18.60;99.90
44215;DHT22;29884;47.450;19.124;2023-07-09T04:43:48;18.70;99.90
44215;DHT22;29884;47.450;19.124;2023-07-09T04:46:14;18.90;99.90
44215;DHT22;29884;47.450;19.124;2023-07-09T04:48:40;19.00;99.90
44215;DHT22;29884;47.450;19.124;2023-07-09T04:51:06;19.10;99.90
44215;DHT22;29884;47.450;19.124;2023-07-09T04:53:32;19.10;99.90
44215;DHT22;29884;47.450;19.124;2023-07-09T04:55:57;19.20;99.90
44215;DHT22;29884;47.450;19.124;2023-07-09T04:58:23;19.20;99.90
44215;DHT22;29884;47.450;19.124;2023-07-09T05:00:49;19.40;99.90
44215;DHT22;29884;47.450;19.124;2023-07-09T05:03:18;19.50;99.90
44215;DHT22;29884;47.450;19.124;2023-07-09T05:05:46;19.60;99.90
44215;DHT22;29884;47.450;19.124;2023-07-09T05:08:13;19.70;99.90
44215;DHT22;29884;47.450;19.124;2023-07-09T05:10:45;19.80;99.90
44215;DHT22;29884;47.450;19.124;2023-07-09T05:13:12;19.80;99.90
44215;DHT22;29884;47.450;19.124;2023-07-09T05:15:42;19.90;99.90
44215;DHT22;29884;47.450;19.124;2023-07-09T05:18:08;19.90;99.90
44215;DHT22;29884;47.450;19.124;2023-07-09T05:20:34;20.00;99.90
44215;DHT22;29884;47.450;19.124;2023-07-09T05:23:00;20.10;99.90
44215;DHT22;29884;47.450;19.124;2023-07-09T05:25:26;20.10;99.90
44215;DHT22;29884;47.450;19.124;2023-07-09T05:27:52;20.20;99.90
44215;DHT22;29884;47.450;19.124;2023-07-09T05:30:21;20.30;99.90
44215;DHT22;29884;47.450;19.124;2023-07-09T05:32:47;20.40;99.90
44215;DHT22;29884;47.450;19.124;2023-07-09T05:35:13;20.50;99.90
44215;DHT22;29884;47.450;19.124;2023-07-09T05:37:38;20.60;99.90
44215;DHT22;29884;47.450;19.124;2023-07-09T05:40:08;20.80;99.90
44215;DHT22;29884;47.450;19.124;2023-07-09T05:42:34;20.80;99.90
44215;DHT22;29884;47.450;19.124;2023-07-09T05:45:00;20.90;99.90
44215;DHT22;29884;47.450;19.124;2023-07-09T05:47:26;21.00;99.90
44215;DHT22;29884;47.450;19.124;2023-07-09T05:49:52;21.10;99.90
44215;DHT22;29884;47.450;19.124;2023-07-09T05:52:20;21.20;99.90
44215;DHT22;29884;47.450;19.124;2023-07-09T05:54:48;21.30;99.90
44215;DHT22;29884;47.450;19.124;2023-07-09T05:57:14;21.40;99.90
44215;DHT22;29884;47.450;19.124;2023-07-09T05:59:39;21.40;99.90
44215;DHT22;29884;47.450;19.124;2023-07-09T06:02:11;21.60;99.90
44215;DHT22;29884;47.450;19.124;2023-07-09T06:04:37;21.70;99.90
44215;DHT22;29884;47.450;19.124;2023-07-09T06:07:03;22.00;99.90
44215;DHT22;29884;47.450;19.124;2023-07-09T06:09:29;22.10;99.90
44215;DHT22;29884;47.450;19.124;2023-07-09T06:11:55;22.20;99.90
44215;DHT22;29884;47.450;19.124;2023-07-09T06:14:21;22.30;99.90
44215;DHT22;29884;47.450;19.124;2023-07-09T06:16:47;22.40;99.90
44215;DHT22;29884;47.450;19.124;2023-07-09T06:19:12;22.50;99.90
44215;DHT22;29884;47.450;19.124;2023-07-09T06:21:39;22.50;99.90
44215;DHT22;29884;47.450;19.124;2023-07-09T06:24:06;22.60;99.90
44215;DHT22;29884;47.450;19.124;2023-07-09T06:26:32;22.70;99.90
44215;DHT22;29884;47.450;19.124;2023-07-09T06:28:58;23.00;99.90
44215;DHT22;29884;47.450;19.124;2023-07-09T06:31:24;23.00;99.90
44215;DHT22;29884;47.450;19.124;2023-07-09T06:33:51;23.20;99.90
44215;DHT22;29884;47.450;19.124;2023-07-09T06:36:18;23.30;99.90
44215;DHT22;29884;47.450;19.124;2023-07-09T06:38:44;23.40;99.90
44215;DHT22;29884;47.450;19.124;2023-07-09T06:41:10;23.60;99.90
44215;DHT22;29884;47.450;19.124;2023-07-09T06:43:36;23.80;99.90
44215;DHT22;29884;47.450;19.124;2023-07-09T06:46:06;23.90;98.50
44215;DHT22;29884;47.450;19.124;2023-07-09T06:48:32;23.90;97.50
44215;DHT22;29884;47.450;19.124;2023-07-09T06:50:59;23.90;97.60
44215;DHT22;29884;47.450;19.124;2023-07-09T06:53:26;24.00;97.20
44215;DHT22;29884;47.450;19.124;2023-07-09T06:55:52;24.10;96.80
44215;DHT22;29884;47.450;19.124;2023-07-09T06:58:21;24.20;96.40
44215;DHT22;29884;47.450;19.124;2023-07-09T07:00:49;24.50;96.00
44215;DHT22;29884;47.450;19.124;2023-07-09T07:03:15;24.60;95.20
44215;DHT22;29884;47.450;19.124;2023-07-09T07:05:45;24.80;95.10
44215;DHT22;29884;47.450;19.124;2023-07-09T07:08:12;24.90;93.20
44215;DHT22;29884;47.450;19.124;2023-07-09T07:10:38;24.90;93.30
44215;DHT22;29884;47.450;19.124;2023-07-09T07:13:04;25.30;92.40
44215;DHT22;29884;47.450;19.124;2023-07-09T07:15:30;25.30;91.50
44215;DHT22;29884;47.450;19.124;2023-07-09T07:17:55;25.50;90.60
44215;DHT22;29884;47.450;19.124;2023-07-09T07:20:21;25.60;89.50
44215;DHT22;29884;47.450;19.124;2023-07-09T07:22:47;25.90;88.20
44215;DHT22;29884;47.450;19.124;2023-07-09T07:25:12;26.00;84.30
44215;DHT22;29884;47.450;19.124;2023-07-09T07:27:38;26.00;84.60
44215;DHT22;29884;47.450;19.124;2023-07-09T07:30:05;26.20;85.00
44215;DHT22;29884;47.450;19.124;2023-07-09T07:32:35;26.20;85.30
44215;DHT22;29884;47.450;19.124;2023-07-09T07:35:01;26.30;83.60
44215;DHT22;29884;47.450;19.124;2023-07-09T07:37:27;26.50;80.30
44215;DHT22;29884;47.450;19.124;2023-07-09T07:39:52;26.60;78.90
44215;DHT22;29884;47.450;19.124;2023-07-09T07:42:18;26.50;75.60
44215;DHT22;29884;47.450;19.124;2023-07-09T07:44:45;26.50;75.50
44215;DHT22;29884;47.450;19.124;2023-07-09T07:47:10;26.90;73.10
44215;DHT22;29884;47.450;19.124;2023-07-09T07:49:37;26.90;73.30
44215;DHT22;29884;47.450;19.124;2023-07-09T07:52:04;26.90;72.80
44215;DHT22;29884;47.450;19.124;2023-07-09T07:54:30;27.00;73.20
44215;DHT22;29884;47.450;19.124;2023-07-09T07:56:57;27.30;71.40
44215;DHT22;29884;47.450;19.124;2023-07-09T07:59:23;27.30;70.20
44215;DHT22;29884;47.450;19.124;2023-07-09T08:01:49;27.40;69.50
44215;DHT22;29884;47.450;19.124;2023-07-09T08:04:15;27.60;67.50
44215;DHT22;29884;47.450;19.124;2023-07-09T08:06:41;27.70;65.50
44215;DHT22;29884;47.450;19.124;2023-07-09T08:09:06;27.70;65.00
44215;DHT22;29884;47.450;19.124;2023-07-09T08:11:32;27.70;63.20
44215;DHT22;29884;47.450;19.124;2023-07-09T08:13:58;27.80;58.70
44215;DHT22;29884;47.450;19.124;2023-07-09T08:16:24;28.00;61.50
44215;DHT22;29884;47.450;19.124;2023-07-09T08:18:50;28.10;63.10
44215;DHT22;29884;47.450;19.124;2023-07-09T08:21:17;28.20;61.20
44215;DHT22;29884;47.450;19.124;2023-07-09T08:23:44;28.50;58.50
44215;DHT22;29884;47.450;19.124;2023-07-09T08:26:10;28.60;55.80
44215;DHT22;29884;47.450;19.124;2023-07-09T08:28:37;28.50;52.60
44215;DHT22;29884;47.450;19.124;2023-07-09T08:31:03;28.40;54.10
44215;DHT22;29884;47.450;19.124;2023-07-09T08:33:30;28.60;53.40
44215;DHT22;29884;47.450;19.124;2023-07-09T08:35:56;28.70;52.10
44215;DHT22;29884;47.450;19.124;2023-07-09T08:38:22;29.00;53.70
44215;DHT22;29884;47.450;19.124;2023-07-09T08:41:07;29.10;54.20
44215;DHT22;29884;47.450;19.124;2023-07-09T08:43:39;29.10;52.40
44215;DHT22;29884;47.450;19.124;2023-07-09T08:46:15;29.20;53.30
44215;DHT22;29884;47.450;19.124;2023-07-09T08:48:45;29.50;52.40
44215;DHT22;29884;47.450;19.124;2023-07-09T08:51:34;29.50;52.90
44215;DHT22;29884;47.450;19.124;2023-07-09T08:54:01;29.20;50.50
44215;DHT22;29884;47.450;19.124;2023-07-09T08:56:31;29.10;47.10
44215;DHT22;29884;47.450;19.124;2023-07-09T08:58:59;29.50;46.20
44215;DHT22;29884;47.450;19.124;2023-07-09T09:01:33;29.70;49.10
44215;DHT22;29884;47.450;19.124;2023-07-09T09:04:13;29.90;45.60
44215;DHT22;29884;47.450;19.124;2023-07-09T09:06:42;30.10;48.20
44215;DHT22;29884;47.450;19.124;2023-07-09T09:09:33;30.10;46.60
44215;DHT22;29884;47.450;19.124;2023-07-09T09:12:17;29.60;46.60
44215;DHT22;29884;47.450;19.124;2023-07-09T09:14:48;29.90;46.50
44215;DHT22;29884;47.450;19.124;2023-07-09T09:17:19;30.00;46.90
44215;DHT22;29884;47.450;19.124;2023-07-09T09:19:54;30.40;48.90
44215;DHT22;29884;47.450;19.124;2023-07-09T09:22:37;30.60;48.00
44215;DHT22;29884;47.450;19.124;2023-07-09T09:27:42;30.60;46.90
44215;DHT22;29884;47.450;19.124;2023-07-09T09:30:16;30.70;44.80
44215;DHT22;29884;47.450;19.124;2023-07-09T09:32:50;30.70;46.30
44215;DHT22;29884;47.450;19.124;2023-07-09T09:35:18;31.00;46.70
44215;DHT22;29884;47.450;19.124;2023-07-09T09:37:54;31.30;45.60
44215;DHT22;29884;47.450;19.124;2023-07-09T09:40:21;31.10;44.60
44215;DHT22;29884;47.450;19.124;2023-07-09T09:42:50;30.40;46.40
44215;DHT22;29884;47.450;19.124;2023-07-09T09:45:18;30.00;47.30
44215;DHT22;29884;47.450;19.124;2023-07-09T09:47:46;30.30;46.80
44215;DHT22;29884;47.450;19.124;2023-07-09T09:50:21;30.90;47.70
44215;DHT22;29884;47.450;19.124;2023-07-09T09:52:48;31.50;45.00
44215;DHT22;29884;47.450;19.124;2023-07-09T09:55:23;31.50;45.00
44215;DHT22;29884;47.450;19.124;2023-07-09T09:57:53;31.40;42.60
44215;DHT22;29884;47.450;19.124;2023-07-09T10:00:23;30.70;43.20
44215;DHT22;29884;47.450;19.124;2023-07-09T10:02:50;30.20;42.70
44215;DHT22;29884;47.450;19.124;2023-07-09T10:05:20;30.00;44.40
44215;DHT22;29884;47.450;19.124;2023-07-09T10:11:08;31.20;43.30
44215;DHT22;29884;47.450;19.124;2023-07-09T10:13:41;31.70;41.40
44215;DHT22;29884;47.450;19.124;2023-07-09T10:16:34;31.80;42.20
44215;DHT22;29884;47.450;19.124;2023-07-09T10:22:06;32.20;43.20
44215;DHT22;29884;47.450;19.124;2023-07-09T10:27:13;32.60;40.10
44215;DHT22;29884;47.450;19.124;2023-07-09T10:35:35;31.10;37.30
44215;DHT22;29884;47.450;19.124;2023-07-09T10:38:40;31.00;38.70
44215;DHT22;29884;47.450;19.124;2023-07-09T10:41:11;31.90;39.70
44215;DHT22;29884;47.450;19.124;2023-07-09T10:46:37;31.40;42.10
44215;DHT22;29884;47.450;19.124;2023-07-09T10:49:05;31.80;39.30
44215;DHT22;29884;47.450;19.124;2023-07-09T10:51:52;32.20;38.30
44215;DHT22;29884;47.450;19.124;2023-07-09T10:54:29;32.50;37.20
44215;DHT22;29884;47.450;19.124;2023-07-09T10:59:52;32.60;38.30
44215;DHT22;29884;47.450;19.124;2023-07-09T11:02:35;31.70;37.80
44215;DHT22;29884;47.450;19.124;2023-07-09T11:05:03;31.90;38.80
44215;DHT22;29884;47.450;19.124;2023-07-09T11:10:09;32.30;38.00
44215;DHT22;29884;47.450;19.124;2023-07-09T11:12:43;31.90;38.40
44215;DHT22;29884;47.450;19.124;2023-07-09T11:15:13;31.40;38.40
44215;DHT22;29884;47.450;19.124;2023-07-09T11:17:45;31.40;39.00
44215;DHT22;29884;47.450;19.124;2023-07-09T11:20:19;31.70;38.80
44215;DHT22;29884;47.450;19.124;2023-07-09T11:23:01;31.40;38.70
44215;DHT22;29884;47.450;19.124;2023-07-09T11:25:40;31.20;39.80
44215;DHT22;29884;47.450;19.124;2023-07-09T11:28:07;31.20;39.40
44215;DHT22;29884;47.450;19.124;2023-07-09T11:30:33;31.30;38.70
44215;DHT22;29884;47.450;19.124;2023-07-09T11:33:02;31.70;38.10
44215;DHT22;29884;47.450;19.124;2023-07-09T11:35:50;31.30;36.80
44215;DHT22;29884;47.450;19.124;2023-07-09T11:38:22;31.00;37.70
44215;DHT22;29884;47.450;19.124;2023-07-09T11:40:54;31.20;36.90
44215;DHT22;29884;47.450;19.124;2023-07-09T11:43:32;31.90;37.30
44215;DHT22;29884;47.450;19.124;2023-07-09T11:46:10;32.40;37.10
44215;DHT22;29884;47.450;19.124;2023-07-09T11:48:39;32.60;36.60
44215;DHT22;29884;47.450;19.124;2023-07-09T11:51:16;32.70;36.20
44215;DHT22;29884;47.450;19.124;2023-07-09T11:53:49;32.80;33.80
44215;DHT22;29884;47.450;19.124;2023-07-09T11:56:21;32.80;36.10
44215;DHT22;29884;47.450;19.124;2023-07-09T11:58:51;32.80;36.20
44215;DHT22;29884;47.450;19.124;2023-07-09T12:01:20;32.40;35.50
44215;DHT22;29884;47.450;19.124;2023-07-09T12:03:48;32.00;35.90
44215;DHT22;29884;47.450;19.124;2023-07-09T12:08:45;32.40;36.10
44215;DHT22;29884;47.450;19.124;2023-07-09T12:13:53;33.00;33.70
44215;DHT22;29884;47.450;19.124;2023-07-09T12:16:30;33.40;34.60
44215;DHT22;29884;47.450;19.124;2023-07-09T12:18:56;33.60;34.00
44215;DHT22;29884;47.450;19.124;2023-07-09T12:21:23;33.00;33.90
44215;DHT22;29884;47.450;19.124;2023-07-09T12:23:50;33.30;33.30
44215;DHT22;29884;47.450;19.124;2023-07-09T12:26:18;33.30;34.00
44215;DHT22;29884;47.450;19.124;2023-07-09T12:28:50;33.80;33.60
44215;DHT22;29884;47.450;19.124;2023-07-09T12:31:16;33.70;33.00
44215;DHT22;29884;47.450;19.124;2023-07-09T12:33:50;33.90;32.10
44215;DHT22;29884;47.450;19.124;2023-07-09T12:36:17;33.40;32.40
44215;DHT22;29884;47.450;19.124;2023-07-09T12:38:50;33.70;32.60
44215;DHT22;29884;47.450;19.124;2023-07-09T12:41:44;33.60;31.40
44215;DHT22;29884;47.450;19.124;2023-07-09T12:44:17;33.50;31.90
44215;DHT22;29884;47.450;19.124;2023-07-09T12:46:44;33.60;31.50
44215;DHT22;29884;47.450;19.124;2023-07-09T12:51:48;33.60;31.80
44215;DHT22;29884;47.450;19.124;2023-07-09T12:54:16;33.60;32.80
44215;DHT22;29884;47.450;19.124;2023-07-09T12:56:43;33.10;32.80
44215;DHT22;29884;47.450;19.124;2023-07-09T12:59:21;32.60;32.90
44215;DHT22;29884;47.450;19.124;2023-07-09T13:02:03;32.30;33.70
44215;DHT22;29884;47.450;19.124;2023-07-09T13:04:35;32.40;33.20
44215;DHT22;29884;47.450;19.124;2023-07-09T13:07:02;32.70;32.70
44215;DHT22;29884;47.450;19.124;2023-07-09T13:09:28;32.50;30.90
44215;DHT22;29884;47.450;19.124;2023-07-09T13:11:55;32.80;32.10
44215;DHT22;29884;47.450;19.124;2023-07-09T13:14:26;32.70;32.10
44215;DHT22;29884;47.450;19.124;2023-07-09T13:16:53;32.60;33.20
44215;DHT22;29884;47.450;19.124;2023-07-09T13:19:27;33.00;32.90
44215;DHT22;29884;47.450;19.124;2023-07-09T13:21:53;33.10;33.00
44215;DHT22;29884;47.450;19.124;2023-07-09T13:24:27;32.60;33.80
44215;DHT22;29884;47.450;19.124;2023-07-09T13:26:53;32.60;33.90
44215;DHT22;29884;47.450;19.124;2023-07-09T13:29:19;33.10;34.20
44215;DHT22;29884;47.450;19.124;2023-07-09T13:31:46;33.40;33.60
44215;DHT22;29884;47.450;19.124;2023-07-09T13:34:24;33.40;32.60
44215;DHT22;29884;47.450;19.124;2023-07-09T13:36:51;33.40;32.60
44215;DHT22;29884;47.450;19.124;2023-07-09T13:39:20;33.60;32.10
44215;DHT22;29884;47.450;19.124;2023-07-09T13:41:48;33.90;32.10
44215;DHT22;29884;47.450;19.124;2023-07-09T13:44:27;33.60;32.50
44215;DHT22;29884;47.450;19.124;2023-07-09T13:46:53;33.60;32.10
44215;DHT22;29884;47.450;19.124;2023-07-09T13:49:22;33.40;32.40
44215;DHT22;29884;47.450;19.124;2023-07-09T13:51:52;33.70;32.40
44215;DHT22;29884;47.450;19.124;2023-07-09T13:54:24;33.80;32.10
44215;DHT22;29884;47.450;19.124;2023-07-09T13:56:51;33.50;31.00
44215;DHT22;29884;47.450;19.124;2023-07-09T13:59:21;33.30;32.20
44215;DHT22;29884;47.450;19.124;2023-07-09T14:01:49;32.90;32.00
44215;DHT22;29884;47.450;19.124;2023-07-09T14:04:16;32.40;32.20
44215;DHT22;29884;47.450;19.124;2023-07-09T14:06:43;32.10;32.50
44215;DHT22;29884;47.450;19.124;2023-07-09T14:09:10;31.90;32.80
44215;DHT22;29884;47.450;19.124;2023-07-09T14:11:48;31.90;34.60
44215;DHT22;29884;47.450;19.124;2023-07-09T14:14:23;32.10;33.50
44215;DHT22;29884;47.450;19.124;2023-07-09T14:16:50;32.60;32.60
44215;DHT22;29884;47.450;19.124;2023-07-09T14:19:21;32.70;30.80
44215;DHT22;29884;47.450;19.124;2023-07-09T14:21:48;32.90;31.40
44215;DHT22;29884;47.450;19.124;2023-07-09T14:24:28;33.10;31.30
44215;DHT22;29884;47.450;19.124;2023-07-09T14:26:56;33.30;31.70
44215;DHT22;29884;47.450;19.124;2023-07-09T14:29:23;33.30;32.10
44215;DHT22;29884;47.450;19.124;2023-07-09T14:31:49;32.80;32.90
44215;DHT22;29884;47.450;19.124;2023-07-09T14:34:24;32.40;32.80
44215;DHT22;29884;47.450;19.124;2023-07-09T14:36:54;32.30;33.30
44215;DHT22;29884;47.450;19.124;2023-07-09T14:39:20;32.70;34.30
44215;DHT22;29884;47.450;19.124;2023-07-09T14:41:47;32.50;34.20
44215;DHT22;29884;47.450;19.124;2023-07-09T14:44:29;32.20;34.80
44215;DHT22;29884;47.450;19.124;2023-07-09T14:46:57;32.10;34.50
44215;DHT22;29884;47.450;19.124;2023-07-09T14:49:24;31.90;35.10
44215;DHT22;29884;47.450;19.124;2023-07-09T14:51:51;31.90;35.40
44215;DHT22;29884;47.450;19.124;2023-07-09T14:54:21;32.30;35.50
44215;DHT22;29884;47.450;19.124;2023-07-09T14:56:48;32.60;34.70
44215;DHT22;29884;47.450;19.124;2023-07-09T14:59:14;32.60;34.20
44215;DHT22;29884;47.450;19.124;2023-07-09T15:01:40;32.50;34.70
44215;DHT22;29884;47.450;19.124;2023-07-09T15:04:30;32.00;34.30
44215;DHT22;29884;47.450;19.124;2023-07-09T15:06:56;32.00;35.90
44215;DHT22;29884;47.450;19.124;2023-07-09T15:09:24;32.30;35.30
44215;DHT22;29884;47.450;19.124;2023-07-09T15:11:55;32.50;34.30
44215;DHT22;29884;47.450;19.124;2023-07-09T15:14:22;32.70;35.00
44215;DHT22;29884;47.450;19.124;2023-07-09T15:16:48;32.90;34.80
44215;DHT22;29884;47.450;19.124;2023-07-09T15:19:16;32.70;34.10
44215;DHT22;29884;47.450;19.124;2023-07-09T15:21:42;32.80;33.30
44215;DHT22;29884;47.450;19.124;2023-07-09T15:24:19;32.90;33.50
44215;DHT22;29884;47.450;19.124;2023-07-09T15:26:49;32.80;34.00
44215;DHT22;29884;47.450;19.124;2023-07-09T15:29:17;32.90;33.80
44215;DHT22;29884;47.450;19.124;2023-07-09T15:31:43;33.00;33.40
44215;DHT22;29884;47.450;19.124;2023-07-09T15:34:09;32.90;33.30
44215;DHT22;29884;47.450;19.124;2023-07-09T15:36:35;32.70;33.60
44215;DHT22;29884;47.450;19.124;2023-07-09T15:39:01;32.70;34.20
44215;DHT22;29884;47.450;19.124;2023-07-09T15:41:27;32.80;34.20
44215;DHT22;29884;47.450;19.124;2023-07-09T15:43:52;32.60;34.00
44215;DHT22;29884;47.450;19.124;2023-07-09T15:46:20;32.20;34.00
44215;DHT22;29884;47.450;19.124;2023-07-09T15:48:47;32.20;34.30
44215;DHT22;29884;47.450;19.124;2023-07-09T15:51:13;32.40;34.00
44215;DHT22;29884;47.450;19.124;2023-07-09T15:53:39;32.50;33.50
44215;DHT22;29884;47.450;19.124;2023-07-09T15:56:24;32.50;33.60
44215;DHT22;29884;47.450;19.124;2023-07-09T15:58:52;32.40;33.60
44215;DHT22;29884;47.450;19.124;2023-07-09T16:01:19;32.30;34.00
44215;DHT22;29884;47.450;19.124;2023-07-09T16:03:54;32.10;33.80
44215;DHT22;29884;47.450;19.124;2023-07-09T16:06:23;32.20;35.20